sensor_id;sensor_type;location;lat;lon;timestamp;temperature;humidity
20070;DHT22;10195;50.868;4.382;2022-08-19T00:00:37;21.40;99.90
20070;DHT22;10195;50.868;4.382;2022-08-19T00:03:03;21.40;99.90
20070;DHT22;10195;50.868;4.382;2022-08-19T00:05:29;21.40;99.90
20070;DHT22;10195;50.868;4.382;2022-08-19T00:07:55;21.40;99.90
20070;DHT22;10195;50.868;4.382;2022-08-19T00:10:21;21.40;99.90
20070;DHT22;10195;50.868;4.382;2022-08-19T00:12:47;21.20;99.90
20070;DHT22;10195;50.868;4.382;2022-08-19T00:15:15;21.10;99.90
20070;DHT22;10195;50.868;4.382;2022-08-19T00:17:43;21.10;99.90
20070;DHT22;10195;50.868;4.382;2022-08-19T00:20:11;21.20;99.90
20070;DHT22;10195;50.868;4.382;2022-08-19T00:22:38;21.10;99.90
20070;DHT22;10195;50.868;4.382;2022-08-19T00:25:05;21.20;99.90
20070;DHT22;10195;50.868;4.382;2022-08-19T00:27:31;21.20;99.90
20070;DHT22;10195;50.868;4.382;2022-08-19T00:29:57;21.20;99.90
20070;DHT22;10195;50.868;4.382;2022-08-19T00:32:24;21.20;99.90
20070;DHT22;10195;50.868;4.382;2022-08-19T00:34:51;21.20;99.90
20070;DHT22;10195;50.868;4.382;2022-08-19T00:37:22;21.10;99.90
20070;DHT22;10195;50.868;4.382;2022-08-19T00:39:48;21.00;99.90
20070;DHT22;10195;50.868;4.382;2022-08-19T00:42:14;21.00;99.90
20070;DHT22;10195;50.868;4.382;2022-08-19T00:44:41;21.00;99.90
20070;DHT22;10195;50.868;4.382;2022-08-19T00:47:06;21.00;99.90
20070;DHT22;10195;50.868;4.382;2022-08-19T00:49:38;21.00;99.90
20070;DHT22;10195;50.868;4.382;2022-08-19T00:52:12;21.10;99.90
20070;DHT22;10195;50.868;4.382;2022-08-19T00:54:40;21.10;99.90
20070;DHT22;10195;50.868;4.382;2022-08-19T00:57:10;21.00;99.90
20070;DHT22;10195;50.868;4.382;2022-08-19T00:59:42;21.10;99.90
20070;DHT22;10195;50.868;4.382;2022-08-19T01:02:08;21.20;99.90
20070;DHT22;10195;50.868;4.382;2022-08-19T01:04:34;21.20;99.90
20070;DHT22;10195;50.868;4.382;2022-08-19T01:06:59;21.10;99.90
20070;DHT22;10195;50.868;4.382;2022-08-19T01:09:26;21.20;99.90
20070;DHT22;10195;50.868;4.382;2022-08-19T01:11:52;21.20;99.90
20070;DHT22;10195;50.868;4.382;2022-08-19T01:14:18;21.20;99.90
20070;DHT22;10195;50.868;4.382;2022-08-19T01:16:45;21.20;99.90
20070;DHT22;10195;50.868;4.382;2022-08-19T01:21:55;21.20;99.90
20070;DHT22;10195;50.868;4.382;2022-08-19T01:24:23;21.20;99.90
20070;DHT22;10195;50.868;4.382;2022-08-19T01:26:49;21.10;99.90
20070;DHT22;10195;50.868;4.382;2022-08-19T01:29:15;21.10;99.90
20070;DHT22;10195;50.868;4.382;2022-08-19T01:31:41;21.00;99.90
20070;DHT22;10195;50.868;4.382;2022-08-19T01:34:07;20.90;99.90
20070;DHT22;10195;50.868;4.382;2022-08-19T01:36:40;20.80;99.90
20070;DHT22;10195;50.868;4.382;2022-08-19T01:39:11;20.80;99.90
20070;DHT22;10195;50.868;4.382;2022-08-19T01:41:38;20.70;99.90
20070;DHT22;10195;50.868;4.382;2022-08-19T01:44:05;20.60;99.90
20070;DHT22;10195;50.868;4.382;2022-08-19T01:46:31;20.60;99.90
20070;DHT22;10195;50.868;4.382;2022-08-19T01:48:58;20.60;99.90
20070;DHT22;10195;50.868;4.382;2022-08-19T01:51:24;20.60;99.90
20070;DHT22;10195;50.868;4.382;2022-08-19T01:53:50;20.50;99.90
20070;DHT22;10195;50.868;4.382;2022-08-19T01:56:17;20.50;99.90
20070;DHT22;10195;50.868;4.382;2022-08-19T01:58:51;20.40;99.90
20070;DHT22;10195;50.868;4.382;2022-08-19T02:01:19;20.40;99.90
20070;DHT22;10195;50.868;4.382;2022-08-19T02:03:45;20.30;99.90
20070;DHT22;10195;50.868;4.382;2022-08-19T02:06:11;20.30;99.90
20070;DHT22;10195;50.868;4.382;2022-08-19T02:08:39;20.30;99.90
20070;DHT22;10195;50.868;4.382;2022-08-19T02:11:06;20.30;99.90
20070;DHT22;10195;50.868;4.382;2022-08-19T02:13:32;20.40;99.90
20070;DHT22;10195;50.868;4.382;2022-08-19T02:15:59;20.30;99.90
20070;DHT22;10195;50.868;4.382;2022-08-19T02:18:24;20.20;99.90
20070;DHT22;10195;50.868;4.382;2022-08-19T02:20:51;20.10;99.90
20070;DHT22;10195;50.868;4.382;2022-08-19T02:23:17;20.00;99.90
20070;DHT22;10195;50.868;4.382;2022-08-19T02:25:45;19.90;99.90
20070;DHT22;10195;50.868;4.382;2022-08-19T02:28:11;19.90;99.90
20070;DHT22;10195;50.868;4.382;2022-08-19T02:30:38;19.90;99.90
20070;DHT22;10195;50.868;4.382;2022-08-19T02:33:05;19.90;99.90
20070;DHT22;10195;50.868;4.382;2022-08-19T02:35:31;19.90;99.90
20070;DHT22;10195;50.868;4.382;2022-08-19T02:37:56;19.80;99.90
20070;DHT22;10195;50.868;4.382;2022-08-19T02:40:50;19.70;99.90
20070;DHT22;10195;50.868;4.382;2022-08-19T02:43:17;19.70;99.90
20070;DHT22;10195;50.868;4.382;2022-08-19T02:45:43;19.80;99.90
20070;DHT22;10195;50.868;4.382;2022-08-19T02:48:09;19.70;99.90
20070;DHT22;10195;50.868;4.382;2022-08-19T02:50:39;19.60;99.90
20070;DHT22;10195;50.868;4.382;2022-08-19T02:53:05;19.60;99.90
20070;DHT22;10195;50.868;4.382;2022-08-19T02:55:32;19.60;99.90
20070;DHT22;10195;50.868;4.382;2022-08-19T02:57:58;19.60;99.90
20070;DHT22;10195;50.868;4.382;2022-08-19T03:00:25;19.60;99.90
20070;DHT22;10195;50.868;4.382;2022-08-19T03:02:52;19.60;99.90
20070;DHT22;10195;50.868;4.382;2022-08-19T03:05:17;19.60;99.90
20070;DHT22;10195;50.868;4.382;2022-08-19T03:07:43;19.60;99.90
20070;DHT22;10195;50.868;4.382;2022-08-19T03:10:09;19.60;99.90
20070;DHT22;10195;50.868;4.382;2022-08-19T03:12:36;19.50;99.90
20070;DHT22;10195;50.868;4.382;2022-08-19T03:15:07;19.50;99.90
20070;DHT22;10195;50.868;4.382;2022-08-19T03:17:34;19.50;99.90
20070;DHT22;10195;50.868;4.382;2022-08-19T03:20:00;19.40;99.90
20070;DHT22;10195;50.868;4.382;2022-08-19T03:22:26;19.40;99.90
20070;DHT22;10195;50.868;4.382;2022-08-19T03:24:51;19.30;99.90
20070;DHT22;10195;50.868;4.382;2022-08-19T03:27:18;19.40;99.90
20070;DHT22;10195;50.868;4.382;2022-08-19T03:29:44;19.30;99.90
20070;DHT22;10195;50.868;4.382;2022-08-19T03:32:11;19.30;99.90
20070;DHT22;10195;50.868;4.382;2022-08-19T03:34:38;19.20;99.90
20070;DHT22;10195;50.868;4.382;2022-08-19T03:37:09;19.10;99.90
20070;DHT22;10195;50.868;4.382;2022-08-19T03:39:37;19.10;99.90
20070;DHT22;10195;50.868;4.382;2022-08-19T03:42:03;19.00;99.90
20070;DHT22;10195;50.868;4.382;2022-08-19T03:44:30;19.00;99.90
20070;DHT22;10195;50.868;4.382;2022-08-19T03:46:58;19.00;99.90
20070;DHT22;10195;50.868;4.382;2022-08-19T03:49:26;19.10;99.90
20070;DHT22;10195;50.868;4.382;2022-08-19T03:51:53;19.00;99.90
20070;DHT22;10195;50.868;4.382;2022-08-19T03:54:20;18.90;99.90
20070;DHT22;10195;50.868;4.382;2022-08-19T03:56:49;18.80;99.90
20070;DHT22;10195;50.868;4.382;2022-08-19T03:59:19;18.80;99.90
20070;DHT22;10195;50.868;4.382;2022-08-19T04:01:46;18.80;99.90
20070;DHT22;10195;50.868;4.382;2022-08-19T04:04:11;18.80;99.90
20070;DHT22;10195;50.868;4.382;2022-08-19T04:06:38;18.70;99.90
20070;DHT22;10195;50.868;4.382;2022-08-19T04:09:08;18.70;99.90
20070;DHT22;10195;50.868;4.382;2022-08-19T04:11:37;18.60;99.90
20070;DHT22;10195;50.868;4.382;2022-08-19T04:14:07;18.60;99.90
20070;DHT22;10195;50.868;4.382;2022-08-19T04:16:33;18.60;99.90
20070;DHT22;10195;50.868;4.382;2022-08-19T04:19:00;18.60;99.90
20070;DHT22;10195;50.868;4.382;2022-08-19T04:21:27;18.50;99.90
20070;DHT22;10195;50.868;4.382;2022-08-19T04:23:54;18.40;99.90
20070;DHT22;10195;50.868;4.382;2022-08-19T04:26:28;18.40;99.90
20070;DHT22;10195;50.868;4.382;2022-08-19T04:28:58;18.40;99.90
20070;DHT22;10195;50.868;4.382;2022-08-19T04:31:27;18.40;99.90
20070;DHT22;10195;50.868;4.382;2022-08-19T04:33:54;18.30;99.90
20070;DHT22;10195;50.868;4.382;2022-08-19T04:36:30;18.40;99.90
20070;DHT22;10195;50.868;4.382;2022-08-19T04:38:57;18.40;99.90
20070;DHT22;10195;50.868;4.382;2022-08-19T04:41:24;18.30;99.90
20070;DHT22;10195;50.868;4.382;2022-08-19T04:44:09;18.20;99.90
20070;DHT22;10195;50.868;4.382;2022-08-19T04:46:35;18.20;99.90
20070;DHT22;10195;50.868;4.382;2022-08-19T04:49:02;18.20;99.90
20070;DHT22;10195;50.868;4.382;2022-08-19T04:51:30;18.20;99.90
20070;DHT22;10195;50.868;4.382;2022-08-19T04:53:56;18.30;99.90
20070;DHT22;10195;50.868;4.382;2022-08-19T04:56:22;18.20;99.90
20070;DHT22;10195;50.868;4.382;2022-08-19T04:58:52;18.30;99.90
20070;DHT22;10195;50.868;4.382;2022-08-19T05:01:23;18.30;99.90
20070;DHT22;10195;50.868;4.382;2022-08-19T05:03:50;18.30;99.90
20070;DHT22;10195;50.868;4.382;2022-08-19T05:06:17;18.20;99.90
20070;DHT22;10195;50.868;4.382;2022-08-19T05:08:44;18.20;99.90
20070;DHT22;10195;50.868;4.382;2022-08-19T05:11:16;18.20;99.90
20070;DHT22;10195;50.868;4.382;2022-08-19T05:13:44;18.10;99.90
20070;DHT22;10195;50.868;4.382;2022-08-19T05:16:12;18.10;99.90
20070;DHT22;10195;50.868;4.382;2022-08-19T05:18:39;18.20;99.90
20070;DHT22;10195;50.868;4.382;2022-08-19T05:21:25;18.20;99.90
20070;DHT22;10195;50.868;4.382;2022-08-19T05:24:10;18.30;99.90
20070;DHT22;10195;50.868;4.382;2022-08-19T05:26:37;18.40;99.90
20070;DHT22;10195;50.868;4.382;2022-08-19T05:29:03;18.40;99.90
20070;DHT22;10195;50.868;4.382;2022-08-19T05:31:30;18.50;99.90
20070;DHT22;10195;50.868;4.382;2022-08-19T05:33:55;18.50;99.90
20070;DHT22;10195;50.868;4.382;2022-08-19T05:36:26;18.50;99.90
20070;DHT22;10195;50.868;4.382;2022-08-19T05:38:53;18.60;99.90
20070;DHT22;10195;50.868;4.382;2022-08-19T05:41:20;18.80;99.90
20070;DHT22;10195;50.868;4.382;2022-08-19T05:43:46;19.10;99.90
20070;DHT22;10195;50.868;4.382;2022-08-19T05:46:19;19.70;99.90
20070;DHT22;10195;50.868;4.382;2022-08-19T05:48:45;19.90;99.90
20070;DHT22;10195;50.868;4.382;2022-08-19T05:51:10;20.20;99.90
20070;DHT22;10195;50.868;4.382;2022-08-19T05:53:37;20.10;99.90
20070;DHT22;10195;50.868;4.382;2022-08-19T05:56:07;20.10;99.90
20070;DHT22;10195;50.868;4.382;2022-08-19T05:58:34;20.10;99.90
20070;DHT22;10195;50.868;4.382;2022-08-19T06:01:00;20.00;99.90
20070;DHT22;10195;50.868;4.382;2022-08-19T06:03:33;19.80;99.90
20070;DHT22;10195;50.868;4.382;2022-08-19T06:05:59;19.90;99.90
20070;DHT22;10195;50.868;4.382;2022-08-19T06:08:26;19.80;99.90
20070;DHT22;10195;50.868;4.382;2022-08-19T06:10:52;19.90;99.90
20070;DHT22;10195;50.868;4.382;2022-08-19T06:13:18;19.90;99.90
20070;DHT22;10195;50.868;4.382;2022-08-19T06:15:45;20.00;99.90
20070;DHT22;10195;50.868;4.382;2022-08-19T06:18:12;20.20;99.90
20070;DHT22;10195;50.868;4.382;2022-08-19T06:20:38;20.40;99.90
20070;DHT22;10195;50.868;4.382;2022-08-19T06:23:04;20.50;99.90
20070;DHT22;10195;50.868;4.382;2022-08-19T06:25:29;20.60;99.90
20070;DHT22;10195;50.868;4.382;2022-08-19T06:27:55;20.60;99.90
20070;DHT22;10195;50.868;4.382;2022-08-19T06:30:21;20.60;99.90
20070;DHT22;10195;50.868;4.382;2022-08-19T06:32:47;20.40;99.90
20070;DHT22;10195;50.868;4.382;2022-08-19T06:35:12;20.60;99.90
20070;DHT22;10195;50.868;4.382;2022-08-19T06:37:40;21.00;99.90
20070;DHT22;10195;50.868;4.382;2022-08-19T06:40:06;21.40;99.90
20070;DHT22;10195;50.868;4.382;2022-08-19T06:42:34;21.60;99.90
20070;DHT22;10195;50.868;4.382;2022-08-19T06:45:00;21.60;99.90
20070;DHT22;10195;50.868;4.382;2022-08-19T06:47:29;21.60;99.90
20070;DHT22;10195;50.868;4.382;2022-08-19T06:49:59;21.50;99.90
20070;DHT22;10195;50.868;4.382;2022-08-19T06:52:33;21.60;99.90
20070;DHT22;10195;50.868;4.382;2022-08-19T06:55:00;21.40;99.90
20070;DHT22;10195;50.868;4.382;2022-08-19T06:57:26;21.20;99.90
20070;DHT22;10195;50.868;4.382;2022-08-19T06:59:52;21.30;99.90
20070;DHT22;10195;50.868;4.382;2022-08-19T07:02:19;21.40;99.90
20070;DHT22;10195;50.868;4.382;2022-08-19T07:04:46;21.60;99.90
20070;DHT22;10195;50.868;4.382;2022-08-19T07:07:14;21.60;99.90
20070;DHT22;10195;50.868;4.382;2022-08-19T07:09:42;21.90;99.90
20070;DHT22;10195;50.868;4.382;2022-08-19T07:12:11;21.70;99.90
20070;DHT22;10195;50.868;4.382;2022-08-19T07:14:38;21.10;99.90
20070;DHT22;10195;50.868;4.382;2022-08-19T07:17:06;21.20;99.90
20070;DHT22;10195;50.868;4.382;2022-08-19T07:19:32;21.40;99.90
20070;DHT22;10195;50.868;4.382;2022-08-19T07:21:58;21.30;99.90
20070;DHT22;10195;50.868;4.382;2022-08-19T07:24:27;21.30;99.90
20070;DHT22;10195;50.868;4.382;2022-08-19T07:26:56;21.70;99.90
20070;DHT22;10195;50.868;4.382;2022-08-19T07:29:23;22.00;99.90
20070;DHT22;10195;50.868;4.382;2022-08-19T07:31:50;22.10;99.90
20070;DHT22;10195;50.868;4.382;2022-08-19T07:34:17;22.20;99.90
20070;DHT22;10195;50.868;4.382;2022-08-19T07:36:43;22.40;99.90
20070;DHT22;10195;50.868;4.382;2022-08-19T07:39:13;22.50;99.90
20070;DHT22;10195;50.868;4.382;2022-08-19T07:41:39;22.50;99.90
20070;DHT22;10195;50.868;4.382;2022-08-19T07:44:06;22.40;99.90
20070;DHT22;10195;50.868;4.382;2022-08-19T07:46:34;22.30;99.90
20070;DHT22;10195;50.868;4.382;2022-08-19T07:49:01;22.40;99.90
20070;DHT22;10195;50.868;4.382;2022-08-19T07:51:28;22.40;99.90
20070;DHT22;10195;50.868;4.382;2022-08-19T07:53:54;22.50;99.90
20070;DHT22;10195;50.868;4.382;2022-08-19T07:56:20;23.10;99.90
20070;DHT22;10195;50.868;4.382;2022-08-19T07:58:48;23.50;99.90
20070;DHT22;10195;50.868;4.382;2022-08-19T08:01:19;23.60;99.90
20070;DHT22;10195;50.868;4.382;2022-08-19T08:03:47;23.80;99.90
20070;DHT22;10195;50.868;4.382;2022-08-19T08:06:31;23.40;99.90
20070;DHT22;10195;50.868;4.382;2022-08-19T08:09:19;23.00;99.90
20070;DHT22;10195;50.868;4.382;2022-08-19T08:11:56;22.90;99.90
20070;DHT22;10195;50.868;4.382;2022-08-19T08:14:56;23.30;99.90
20070;DHT22;10195;50.868;4.382;2022-08-19T08:17:24;23.50;99.90
20070;DHT22;10195;50.868;4.382;2022-08-19T08:19:50;23.80;99.90
20070;DHT22;10195;50.868;4.382;2022-08-19T08:22:19;24.70;99.90
20070;DHT22;10195;50.868;4.382;2022-08-19T08:25:12;24.20;99.90
20070;DHT22;10195;50.868;4.382;2022-08-19T08:27:44;24.10;99.90
20070;DHT22;10195;50.868;4.382;2022-08-19T08:30:15;23.90;99.90
20070;DHT22;10195;50.868;4.382;2022-08-19T08:32:41;23.80;99.90
20070;DHT22;10195;50.868;4.382;2022-08-19T08:35:10;23.90;99.90
20070;DHT22;10195;50.868;4.382;2022-08-19T08:37:36;23.90;99.90
20070;DHT22;10195;50.868;4.382;2022-08-19T08:40:10;24.10;99.90
20070;DHT22;10195;50.868;4.382;2022-08-19T08:42:46;24.20;99.90
20070;DHT22;10195;50.868;4.382;2022-08-19T08:45:17;24.20;99.90
20070;DHT22;10195;50.868;4.382;2022-08-19T08:47:45;24.00;99.90
20070;DHT22;10195;50.868;4.382;2022-08-19T08:52:50;23.60;99.90
20070;DHT22;10195;50.868;4.382;2022-08-19T08:55:22;23.60;99.90
20070;DHT22;10195;50.868;4.382;2022-08-19T09:00:26;23.30;99.90
20070;DHT22;10195;50.868;4.382;2022-08-19T09:02:54;23.20;99.90
20070;DHT22;10195;50.868;4.382;2022-08-19T09:05:21;23.10;99.90
20070;DHT22;10195;50.868;4.382;2022-08-19T09:08:02;23.50;99.90
20070;DHT22;10195;50.868;4.382;2022-08-19T09:16:11;23.50;99.90
20070;DHT22;10195;50.868;4.382;2022-08-19T09:18:45;23.60;99.90
20070;DHT22;10195;50.868;4.382;2022-08-19T09:21:15;23.80;99.90
20070;DHT22;10195;50.868;4.382;2022-08-19T09:23:41;23.80;99.90
20070;DHT22;10195;50.868;4.382;2022-08-19T09:26:11;23.50;99.90
20070;DHT22;10195;50.868;4.382;2022-08-19T09:28:39;23.40;99.90
20070;DHT22;10195;50.868;4.382;2022-08-19T09:31:09;23.50;99.90
20070;DHT22;10195;50.868;4.382;2022-08-19T09:33:36;23.40;99.90
20070;DHT22;10195;50.868;4.382;2022-08-19T09:36:09;23.40;99.90
20070;DHT22;10195;50.868;4.382;2022-08-19T09:38:36;23.50;99.90
20070;DHT22;10195;50.868;4.382;2022-08-19T09:41:09;23.40;99.90
20070;DHT22;10195;50.868;4.382;2022-08-19T09:43:37;23.70;99.90
20070;DHT22;10195;50.868;4.382;2022-08-19T09:46:05;23.80;99.90
20070;DHT22;10195;50.868;4.382;2022-08-19T09:48:38;23.80;99.90
20070;DHT22;10195;50.868;4.382;2022-08-19T09:51:15;23.70;99.90
20070;DHT22;10195;50.868;4.382;2022-08-19T09:53:42;23.70;99.90
20070;DHT22;10195;50.868;4.382;2022-08-19T09:56:08;23.80;99.90
20070;DHT22;10195;50.868;4.382;2022-08-19T09:58:35;23.80;99.90
20070;DHT22;10195;50.868;4.382;2022-08-19T10:01:02;24.00;99.90
20070;DHT22;10195;50.868;4.382;2022-08-19T10:03:29;24.30;99.90
20070;DHT22;10195;50.868;4.382;2022-08-19T10:05:56;24.40;99.90
20070;DHT22;10195;50.868;4.382;2022-08-19T10:08:30;24.40;99.90
20070;DHT22;10195;50.868;4.382;2022-08-19T10:10:57;24.30;99.90
20070;DHT22;10195;50.868;4.382;2022-08-19T10:13:25;24.10;99.90
20070;DHT22;10195;50.868;4.382;2022-08-19T10:15:53;24.00;99.90
20070;DHT22;10195;50.868;4.382;2022-08-19T10:18:20;24.00;99.90
20070;DHT22;10195;50.868;4.382;2022-08-19T10:20:47;24.10;99.90
20070;DHT22;10195;50.868;4.382;2022-08-19T10:23:14;24.20;99.90
20070;DHT22;10195;50.868;4.382;2022-08-19T10:25:41;24.20;99.90
20070;DHT22;10195;50.868;4.382;2022-08-19T10:28:08;24.30;99.90
20070;DHT22;10195;50.868;4.382;2022-08-19T10:30:38;23.90;99.90
20070;DHT22;10195;50.868;4.382;2022-08-19T10:33:04;24.10;99.90
20070;DHT22;10195;50.868;4.382;2022-08-19T10:35:30;24.20;99.90
20070;DHT22;10195;50.868;4.382;2022-08-19T10:37:56;24.10;99.90
20070;DHT22;10195;50.868;4.382;2022-08-19T10:40:28;24.20;99.90
20070;DHT22;10195;50.868;4.382;2022-08-19T10:42:54;24.10;99.90
20070;DHT22;10195;50.868;4.382;2022-08-19T10:45:21;24.10;99.90
20070;DHT22;10195;50.868;4.382;2022-08-19T10:47:48;24.10;99.90
20070;DHT22;10195;50.868;4.382;2022-08-19T10:50:14;24.10;99.90
20070;DHT22;10195;50.868;4.382;2022-08-19T10:53:07;24.20;99.90
20070;DHT22;10195;50.868;4.382;2022-08-19T10:55:36;24.00;99.90
20070;DHT22;10195;50.868;4.382;2022-08-19T10:58:22;23.90;99.90
20070;DHT22;10195;50.868;4.382;2022-08-19T11:00:57;24.10;99.90
20070;DHT22;10195;50.868;4.382;2022-08-19T11:03:23;23.80;99.90
20070;DHT22;10195;50.868;4.382;2022-08-19T11:05:59;23.90;99.90
20070;DHT22;10195;50.868;4.382;2022-08-19T11:08:25;23.70;99.90
20070;DHT22;10195;50.868;4.382;2022-08-19T11:10:53;23.80;99.90
20070;DHT22;10195;50.868;4.382;2022-08-19T11:13:27;23.90;99.90
20070;DHT22;10195;50.868;4.382;2022-08-19T11:16:03;23.90;99.90
20070;DHT22;10195;50.868;4.382;2022-08-19T11:18:29;23.90;99.90
20070;DHT22;10195;50.868;4.382;2022-08-19T11:20:54;23.80;99.90
20070;DHT22;10195;50.868;4.382;2022-08-19T11:23:20;24.00;99.90
20070;DHT22;10195;50.868;4.382;2022-08-19T11:25:46;24.20;99.90
20070;DHT22;10195;50.868;4.382;2022-08-19T11:28:12;24.60;99.90
20070;DHT22;10195;50.868;4.382;2022-08-19T11:30:39;24.90;99.90
20070;DHT22;10195;50.868;4.382;2022-08-19T11:33:04;24.90;99.90
20070;DHT22;10195;50.868;4.382;2022-08-19T11:35:30;24.90;99.90
20070;DHT22;10195;50.868;4.382;2022-08-19T11:37:56;25.00;99.90
20070;DHT22;10195;50.868;4.382;2022-08-19T11:40:26;24.90;99.90
20070;DHT22;10195;50.868;4.382;2022-08-19T11:42:52;24.70;99.90
20070;DHT22;10195;50.868;4.382;2022-08-19T11:45:20;24.60;99.90
20070;DHT22;10195;50.868;4.382;2022-08-19T11:47:46;24.50;99.90
20070;DHT22;10195;50.868;4.382;2022-08-19T11:50:14;24.50;99.90
20070;DHT22;10195;50.868;4.382;2022-08-19T11:52:40;24.70;99.90
20070;DHT22;10195;50.868;4.382;2022-08-19T11:55:06;24.80;99.90
20070;DHT22;10195;50.868;4.382;2022-08-19T11:57:32;25.10;99.90
20070;DHT22;10195;50.868;4.382;2022-08-19T11:59:58;25.30;99.90
20070;DHT22;10195;50.868;4.382;2022-08-19T12:02:23;25.50;99.90
20070;DHT22;10195;50.868;4.382;2022-08-19T12:04:49;25.90;99.90
20070;DHT22;10195;50.868;4.382;2022-08-19T12:07:15;26.20;99.90
20070;DHT22;10195;50.868;4.382;2022-08-19T12:09:41;26.20;99.90
20070;DHT22;10195;50.868;4.382;2022-08-19T12:12:07;26.50;99.90
20070;DHT22;10195;50.868;4.382;2022-08-19T12:14:34;26.60;99.90
20070;DHT22;10195;50.868;4.382;2022-08-19T12:16:59;26.40;99.90
20070;DHT22;10195;50.868;4.382;2022-08-19T12:19:25;26.60;99.90
20070;DHT22;10195;50.868;4.382;2022-08-19T12:21:51;26.80;99.90
20070;DHT22;10195;50.868;4.382;2022-08-19T12:24:19;26.90;99.90
20070;DHT22;10195;50.868;4.382;2022-08-19T12:26:48;26.80;99.90
20070;DHT22;10195;50.868;4.382;2022-08-19T12:29:14;26.10;99.90
20070;DHT22;10195;50.868;4.382;2022-08-19T12:31:40;26.10;99.90
20070;DHT22;10195;50.868;4.382;2022-08-19T12:34:05;26.00;99.90
20070;DHT22;10195;50.868;4.382;2022-08-19T12:36:31;26.30;99.90
20070;DHT22;10195;50.868;4.382;2022-08-19T12:38:59;26.60;99.90
20070;DHT22;10195;50.868;4.382;2022-08-19T12:41:25;26.80;99.90
20070;DHT22;10195;50.868;4.382;2022-08-19T12:43:51;26.90;99.90
20070;DHT22;10195;50.868;4.382;2022-08-19T12:46:18;26.90;99.90
20070;DHT22;10195;50.868;4.382;2022-08-19T12:48:43;26.90;99.90
20070;DHT22;10195;50.868;4.382;2022-08-19T12:51:13;26.80;99.90
20070;DHT22;10195;50.868;4.382;2022-08-19T12:53:40;26.30;99.90
20070;DHT22;10195;50.868;4.382;2022-08-19T12:56:07;26.30;99.90
20070;DHT22;10195;50.868;4.382;2022-08-19T12:58:32;26.70;99.90
20070;DHT22;10195;50.868;4.382;2022-08-19T13:01:05;26.80;99.90
20070;DHT22;10195;50.868;4.382;2022-08-19T13:03:31;26.90;99.90
20070;DHT22;10195;50.868;4.382;2022-08-19T13:05:56;27.30;99.90
20070;DHT22;10195;50.868;4.382;2022-08-19T13:08:22;27.50;99.90
20070;DHT22;10195;50.868;4.382;2022-08-19T13:10:48;27.60;99.90
20070;DHT22;10195;50.868;4.382;2022-08-19T13:13:13;27.60;99.90
20070;DHT22;10195;50.868;4.382;2022-08-19T13:15:41;27.50;99.90
20070;DHT22;10195;50.868;4.382;2022-08-19T13:18:08;27.50;99.90
20070;DHT22;10195;50.868;4.382;2022-08-19T13:20:35;27.40;99.90
20070;DHT22;10195;50.868;4.382;2022-08-19T13:23:01;27.50;99.90
20070;DHT22;10195;50.868;4.382;2022-08-19T13:25:26;27.50;99.90
20070;DHT22;10195;50.868;4.382;2022-08-19T13:27:52;27.30;99.90
20070;DHT22;10195;50.868;4.382;2022-08-19T13:30:19;27.30;99.90
20070;DHT22;10195;50.868;4.382;2022-08-19T13:33:05;27.10;99.90
20070;DHT22;10195;50.868;4.382;2022-08-19T13:35:47;26.80;99.90
20070;DHT22;10195;50.868;4.382;2022-08-19T13:38:15;26.60;99.90
20070;DHT22;10195;50.868;4.382;2022-08-19T13:40:41;26.70;99.90
20070;DHT22;10195;50.868;4.382;2022-08-19T13:43:08;27.30;99.90
20070;DHT22;10195;50.868;4.382;2022-08-19T13:45:35;27.20;99.90
20070;DHT22;10195;50.868;4.382;2022-08-19T13:48:05;27.50;99.90
20070;DHT22;10195;50.868;4.382;2022-08-19T13:50:32;27.40;99.90
20070;DHT22;10195;50.868;4.382;2022-08-19T13:52:59;27.10;99.90
20070;DHT22;10195;50.868;4.382;2022-08-19T13:55:25;26.90;99.90
20070;DHT22;10195;50.868;4.382;2022-08-19T13:57:56;26.90;99.90
20070;DHT22;10195;50.868;4.382;2022-08-19T14:00:24;26.90;99.90
20070;DHT22;10195;50.868;4.382;2022-08-19T14:02:53;26.80;99.90
20070;DHT22;10195;50.868;4.382;2022-08-19T14:05:20;26.50;99.90
20070;DHT22;10195;50.868;4.382;2022-08-19T14:07:46;26.40;99.90
20070;DHT22;10195;50.868;4.382;2022-08-19T14:10:14;26.30;99.90
20070;DHT22;10195;50.868;4.382;2022-08-19T14:12:40;26.10;99.90
20070;DHT22;10195;50.868;4.382;2022-08-19T14:15:08;25.90;99.90
20070;DHT22;10195;50.868;4.382;2022-08-19T14:17:34;25.70;99.90
20070;DHT22;10195;50.868;4.382;2022-08-19T14:20:03;25.30;99.90
20070;DHT22;10195;50.868;4.382;2022-08-19T14:22:33;25.10;99.90
20070;DHT22;10195;50.868;4.382;2022-08-19T14:24:58;24.90;99.90
20070;DHT22;10195;50.868;4.382;2022-08-19T14:27:24;24.50;99.90
20070;DHT22;10195;50.868;4.382;2022-08-19T14:29:51;24.50;99.90
20070;DHT22;10195;50.868;4.382;2022-08-19T14:32:17;24.30;99.90
20070;DHT22;10195;50.868;4.382;2022-08-19T14:34:42;24.30;99.90
20070;DHT22;10195;50.868;4.382;2022-08-19T14:37:12;24.50;99.90
20070;DHT22;10195;50.868;4.382;2022-08-19T14:39:40;24.60;99.90
20070;DHT22;10195;50.868;4.382;2022-08-19T14:42:09;24.40;99.90
20070;DHT22;10195;50.868;4.382;2022-08-19T14:44:35;24.30;99.90
20070;DHT22;10195;50.868;4.382;2022-08-19T14:47:01;24.30;99.90
20070;DHT22;10195;50.868;4.382;2022-08-19T14:49:26;24.10;99.90
20070;DHT22;10195;50.868;4.382;2022-08-19T14:51:52;23.80;99.90
20070;DHT22;10195;50.868;4.382;2022-08-19T14:54:18;23.70;99.90
20070;DHT22;10195;50.868;4.382;2022-08-19T14:56:44;23.60;99.90
20070;DHT22;10195;50.868;4.382;2022-08-19T14:59:09;24.00;99.90
20070;DHT22;10195;50.868;4.382;2022-08-19T15:01:35;24.20;99.90
20070;DHT22;10195;50.868;4.382;2022-08-19T15:04:01;24.50;99.90
20070;DHT22;10195;50.868;4.382;2022-08-19T15:06:28;24.80;99.90
20070;DHT22;10195;50.868;4.382;2022-08-19T15:08:54;25.00;99.90
20070;DHT22;10195;50.868;4.382;2022-08-19T15:11:22;25.00;99.90
20070;DHT22;10195;50.868;4.382;2022-08-19T15:13:49;25.10;99.90
20070;DHT22;10195;50.868;4.382;2022-08-19T15:16:16;25.00;99.90
20070;DHT22;10195;50.868;4.382;2022-08-19T15:18:42;25.10;99.90
20070;DHT22;10195;50.868;4.382;2022-08-19T15:21:13;25.20;99.90
20070;DHT22;10195;50.868;4.382;2022-08-19T15:23:39;25.50;99.90
20070;DHT22;10195;50.868;4.382;2022-08-19T15:26:06;25.70;99.90
20070;DHT22;10195;50.868;4.382;2022-08-19T15:28:33;25.60;99.90
20070;DHT22;10195;50.868;4.382;2022-08-19T15:30:58;25.50;99.90
20070;DHT22;10195;50.868;4.382;2022-08-19T15:33:24;25.50;99.90
20070;DHT22;10195;50.868;4.382;2022-08-19T15:35:51;25.40;99.90
20070;DHT22;10195;50.868;4.382;2022-08-19T15:38:18;25.40;99.90
20070;DHT22;10195;50.868;4.382;2022-08-19T15:40:49;25.30;99.90
20070;DHT22;10195;50.868;4.382;2022-08-19T15:43:17;25.00;99.90
20070;DHT22;10195;50.868;4.382;2022-08-19T15:45:44;25.00;99.90
20070;DHT22;10195;50.868;4.382;2022-08-19T15:48:10;24.90;99.90